Historique des mesures à Cassis (13260), France
Quotidien Résumé Novembre 17, 2017 Unités:  Métrique    US   Métrique/US
« Précédent (Jour)
Suivant (Jour) »
Quotidien Hebdomadaire Mensuel Annuel Période au choix
  Maximum: Minimum: Moyenne:
Température: TemperatureC °C 9.4 °C 11.3 °C
Point de rosée: DewpointC °C -0.3 °C 3 °C
Humidité: Humidity % 50 % 53 %
Vitesse du vent: 0 km/h 0 km/h 0.8 km/h
Rafales: 0 km/h - -
Vent:- - North
Pression: PressurehPa hPa 1013.4 hPa -
Précipitations: 0.0 mm    
Historical Graphs
 
 
Mesures pour : Novembre 17, 2017
Heure Temperature Point de rosée Pression Vent Vitesse du vent Rafales Humidité Pluie (par heure) Conditions
TemperatureC °C DewpointC °C PressurehPa hPa Calm     Humidity % HourlyPrecipMM mm SoftwareType W/m2
01:11 9.8 °C 0.7 °C 1013.8 hPa Calm     53 % 0.0 mm open2300-1.11 W/m2
02:10 9.8 °C 0.4 °C 1013.8 hPa Calm     52 % 0.0 mm open2300-1.11 W/m2
03:11 9.4 °C -0.3 °C 1013.8 hPa Calm     51 % 0.0 mm open2300-1.11 W/m2
04:10 9.8 °C 0.2 °C 1013.4 hPa Calm     51 % 0.0 mm open2300-1.11 W/m2
05:11 9.9 °C 0.5 °C 1013.4 hPa Calm     52 % 0.0 mm open2300-1.11 W/m2
06:10 9.5 °C 0.1 °C 1013.8 hPa Calm     52 % 0.0 mm open2300-1.11 W/m2
07:11 9.6 °C 0.4 °C 1013.8 hPa Calm     53 % 0.0 mm open2300-1.11 W/m2
08:10 9.9 °C 0.7 °C 1014.1 hPa Calm     53 % 0.0 mm open2300-1.11 W/m2
09:11 12.2 °C 2.3 °C 1014.4 hPa Calm     51 % 0.0 mm open2300-1.11 W/m2
10:10 12.6 °C 2.9 °C 1014.8 hPa Calm     52 % 0.0 mm open2300-1.11 W/m2
11:11 14.1 °C 4.4 °C 1015.1 hPa Calm     52 % 0.0 mm open2300-1.11 W/m2
12:10 14.9 °C 4.6 °C 1014.4 hPa Calm     50 % 0.0 mm open2300-1.11 W/m2
13:11 15.2 °C 5.9 °C 1014.4 hPa Calm   15.6 km/h 54 % 0.0 mm open2300-1.11 W/m2
14:10 15.2 °C 6.9 °C 1014.1 hPa Calm     58 % 0.0 mm open2300-1.11 W/m2
15:11 15.1 °C 7.1 °C 1013.4 hPa Calm     59 % 0.0 mm open2300-1.11 W/m2
16:10 14.6 °C 6.9 °C 1013.4 hPa Calm     60 % 0.0 mm open2300-1.11 W/m2
17:11 13.4 °C 6.2 °C 1013.4 hPa Calm     62 % 0.0 mm open2300-1.11 W/m2
18:10 11.9 °C 5.3 °C 1013.4 hPa Calm     64 % 0.0 mm open2300-1.11 W/m2
19:11 11.4 °C 4.3 °C 1013.4 hPa Calm     62 % 0.0 mm open2300-1.11 W/m2
20:10 10.5 °C 3.3 °C 1013.4 hPa North 4.2 km/h 8.9 km/h 61 % 0.0 mm open2300-1.11 W/m2
21:11 10.4 °C 3.2 °C 1013.4 hPa North 15 km/h 15 km/h 61 % 0.0 mm open2300-1.11 W/m2
22:10 10.6 °C 2.7 °C 1013.4 hPa Calm     58 % 0.0 mm open2300-1.11 W/m2
23:11 10.8 °C 2.6 °C 1013.4 hPa Calm     57 % 0.0 mm open2300-1.11 W/m2
Observations météo à CASSIS
WU-History script by Weather Underground - 1 mb